sensor_id;sensor_type;location;lat;lon;timestamp;temperature;humidity
18613;DHT22;9436;52.152;21.032;2022-12-16T00:01:21;-1.80;99.90
18613;DHT22;9436;52.152;21.032;2022-12-16T00:03:49;-1.80;99.90
18613;DHT22;9436;52.152;21.032;2022-12-16T00:06:16;-1.70;99.90
18613;DHT22;9436;52.152;21.032;2022-12-16T00:08:43;-1.70;99.90
18613;DHT22;9436;52.152;21.032;2022-12-16T00:11:10;-1.70;99.90
18613;DHT22;9436;52.152;21.032;2022-12-16T00:13:38;-1.70;99.90
18613;DHT22;9436;52.152;21.032;2022-12-16T00:16:07;-1.70;99.90
18613;DHT22;9436;52.152;21.032;2022-12-16T00:18:34;-1.70;99.90
18613;DHT22;9436;52.152;21.032;2022-12-16T00:21:01;-1.70;99.90
18613;DHT22;9436;52.152;21.032;2022-12-16T00:23:29;-1.80;99.90
18613;DHT22;9436;52.152;21.032;2022-12-16T00:25:56;-1.90;99.90
18613;DHT22;9436;52.152;21.032;2022-12-16T00:28:22;-1.90;99.90
18613;DHT22;9436;52.152;21.032;2022-12-16T00:30:52;-2.00;99.90
18613;DHT22;9436;52.152;21.032;2022-12-16T00:33:20;-2.00;99.90
18613;DHT22;9436;52.152;21.032;2022-12-16T00:35:48;-1.90;99.90
18613;DHT22;9436;52.152;21.032;2022-12-16T00:38:15;-1.90;99.90
18613;DHT22;9436;52.152;21.032;2022-12-16T00:40:42;-1.90;99.90
18613;DHT22;9436;52.152;21.032;2022-12-16T00:43:08;-1.90;99.90
18613;DHT22;9436;52.152;21.032;2022-12-16T00:45:35;-2.00;99.90
18613;DHT22;9436;52.152;21.032;2022-12-16T00:48:03;-1.90;99.90
18613;DHT22;9436;52.152;21.032;2022-12-16T00:50:30;-1.90;99.90
18613;DHT22;9436;52.152;21.032;2022-12-16T00:52:57;-1.90;99.90
18613;DHT22;9436;52.152;21.032;2022-12-16T00:55:24;-2.00;99.90
18613;DHT22;9436;52.152;21.032;2022-12-16T00:57:50;-2.00;99.90
18613;DHT22;9436;52.152;21.032;2022-12-16T01:00:18;-2.00;99.90
18613;DHT22;9436;52.152;21.032;2022-12-16T01:02:48;-2.00;99.90
18613;DHT22;9436;52.152;21.032;2022-12-16T01:05:19;-2.10;99.90
18613;DHT22;9436;52.152;21.032;2022-12-16T01:07:46;-2.10;99.90
18613;DHT22;9436;52.152;21.032;2022-12-16T01:10:12;-2.10;99.90
18613;DHT22;9436;52.152;21.032;2022-12-16T01:12:39;-2.10;99.90
18613;DHT22;9436;52.152;21.032;2022-12-16T01:15:07;-2.10;99.90
18613;DHT22;9436;52.152;21.032;2022-12-16T01:17:34;-2.10;99.90
18613;DHT22;9436;52.152;21.032;2022-12-16T01:20:01;-2.20;99.90
18613;DHT22;9436;52.152;21.032;2022-12-16T01:22:31;-2.20;99.90
18613;DHT22;9436;52.152;21.032;2022-12-16T01:24:58;-2.20;99.90
18613;DHT22;9436;52.152;21.032;2022-12-16T01:27:25;-2.20;99.90
18613;DHT22;9436;52.152;21.032;2022-12-16T01:29:52;-2.20;99.90
18613;DHT22;9436;52.152;21.032;2022-12-16T01:32:18;-2.20;99.90
18613;DHT22;9436;52.152;21.032;2022-12-16T01:34:48;-2.30;99.90
18613;DHT22;9436;52.152;21.032;2022-12-16T01:37:15;-2.20;99.90
18613;DHT22;9436;52.152;21.032;2022-12-16T01:39:43;-2.20;99.90
18613;DHT22;9436;52.152;21.032;2022-12-16T01:42:10;-2.10;99.90
18613;DHT22;9436;52.152;21.032;2022-12-16T01:44:37;-2.20;99.90
18613;DHT22;9436;52.152;21.032;2022-12-16T01:47:05;-2.30;99.90
18613;DHT22;9436;52.152;21.032;2022-12-16T01:49:35;-2.30;99.90
18613;DHT22;9436;52.152;21.032;2022-12-16T01:52:05;-2.30;99.90
18613;DHT22;9436;52.152;21.032;2022-12-16T01:54:36;-2.30;99.90
18613;DHT22;9436;52.152;21.032;2022-12-16T01:57:10;-2.30;99.90
18613;DHT22;9436;52.152;21.032;2022-12-16T01:59:40;-2.40;99.90
18613;DHT22;9436;52.152;21.032;2022-12-16T02:02:08;-2.40;99.90
18613;DHT22;9436;52.152;21.032;2022-12-16T02:04:35;-2.40;99.90
18613;DHT22;9436;52.152;21.032;2022-12-16T02:07:22;-2.30;99.90
18613;DHT22;9436;52.152;21.032;2022-12-16T02:09:48;-2.30;99.90
18613;DHT22;9436;52.152;21.032;2022-12-16T02:12:26;-2.30;99.90
18613;DHT22;9436;52.152;21.032;2022-12-16T02:15:07;-2.30;99.90
18613;DHT22;9436;52.152;21.032;2022-12-16T02:17:42;-2.20;99.90
18613;DHT22;9436;52.152;21.032;2022-12-16T02:20:26;-2.20;99.90
18613;DHT22;9436;52.152;21.032;2022-12-16T02:23:21;-2.20;99.90
18613;DHT22;9436;52.152;21.032;2022-12-16T02:26:06;-2.10;99.90
18613;DHT22;9436;52.152;21.032;2022-12-16T02:28:53;-2.20;99.90
18613;DHT22;9436;52.152;21.032;2022-12-16T02:31:29;-2.20;99.90
18613;DHT22;9436;52.152;21.032;2022-12-16T02:34:07;-2.10;99.90
18613;DHT22;9436;52.152;21.032;2022-12-16T02:36:44;-2.10;99.90
18613;DHT22;9436;52.152;21.032;2022-12-16T02:39:20;-2.10;99.90
18613;DHT22;9436;52.152;21.032;2022-12-16T02:41:50;-2.10;99.90
18613;DHT22;9436;52.152;21.032;2022-12-16T02:44:20;-2.20;99.90
18613;DHT22;9436;52.152;21.032;2022-12-16T02:46:54;-2.20;99.90
18613;DHT22;9436;52.152;21.032;2022-12-16T02:51:56;-2.30;99.90
18613;DHT22;9436;52.152;21.032;2022-12-16T02:54:25;-2.30;99.90
18613;DHT22;9436;52.152;21.032;2022-12-16T02:56:57;-2.40;99.90
18613;DHT22;9436;52.152;21.032;2022-12-16T02:59:32;-2.40;99.90
18613;DHT22;9436;52.152;21.032;2022-12-16T03:02:11;-2.50;99.90
18613;DHT22;9436;52.152;21.032;2022-12-16T03:04:45;-2.60;99.90
18613;DHT22;9436;52.152;21.032;2022-12-16T03:07:17;-2.60;99.90
18613;DHT22;9436;52.152;21.032;2022-12-16T03:09:46;-2.70;99.90
18613;DHT22;9436;52.152;21.032;2022-12-16T03:12:16;-2.60;99.90
18613;DHT22;9436;52.152;21.032;2022-12-16T03:14:46;-2.50;99.90
18613;DHT22;9436;52.152;21.032;2022-12-16T03:17:16;-2.50;99.90
18613;DHT22;9436;52.152;21.032;2022-12-16T03:19:47;-2.40;99.90
18613;DHT22;9436;52.152;21.032;2022-12-16T03:22:17;-2.40;99.90
18613;DHT22;9436;52.152;21.032;2022-12-16T03:24:45;-2.40;99.90
18613;DHT22;9436;52.152;21.032;2022-12-16T03:27:17;-2.30;99.90
18613;DHT22;9436;52.152;21.032;2022-12-16T03:29:52;-2.30;99.90
18613;DHT22;9436;52.152;21.032;2022-12-16T03:32:25;-2.30;99.90
18613;DHT22;9436;52.152;21.032;2022-12-16T03:34:56;-2.30;99.90
18613;DHT22;9436;52.152;21.032;2022-12-16T03:37:27;-2.20;99.90
18613;DHT22;9436;52.152;21.032;2022-12-16T03:39:59;-2.20;99.90
18613;DHT22;9436;52.152;21.032;2022-12-16T03:42:26;-2.20;99.90
18613;DHT22;9436;52.152;21.032;2022-12-16T03:44:53;-2.30;99.90
18613;DHT22;9436;52.152;21.032;2022-12-16T03:47:19;-2.40;99.90
18613;DHT22;9436;52.152;21.032;2022-12-16T03:49:48;-2.30;99.90
18613;DHT22;9436;52.152;21.032;2022-12-16T03:52:14;-2.30;99.90
18613;DHT22;9436;52.152;21.032;2022-12-16T03:54:41;-2.30;99.90
18613;DHT22;9436;52.152;21.032;2022-12-16T03:57:07;-2.20;99.90
18613;DHT22;9436;52.152;21.032;2022-12-16T03:59:34;-2.20;99.90
18613;DHT22;9436;52.152;21.032;2022-12-16T04:02:00;-2.30;99.90
18613;DHT22;9436;52.152;21.032;2022-12-16T04:04:27;-2.30;99.90
18613;DHT22;9436;52.152;21.032;2022-12-16T04:06:55;-2.30;99.90
18613;DHT22;9436;52.152;21.032;2022-12-16T04:09:36;-2.30;99.90
18613;DHT22;9436;52.152;21.032;2022-12-16T04:12:03;-2.30;99.90
18613;DHT22;9436;52.152;21.032;2022-12-16T04:14:33;-2.30;99.90
18613;DHT22;9436;52.152;21.032;2022-12-16T04:17:03;-2.20;99.90
18613;DHT22;9436;52.152;21.032;2022-12-16T04:19:35;-2.20;99.90
18613;DHT22;9436;52.152;21.032;2022-12-16T04:22:11;-2.30;99.90
18613;DHT22;9436;52.152;21.032;2022-12-16T04:24:49;-2.30;99.90
18613;DHT22;9436;52.152;21.032;2022-12-16T04:27:16;-2.30;99.90
18613;DHT22;9436;52.152;21.032;2022-12-16T04:29:45;-2.40;99.90
18613;DHT22;9436;52.152;21.032;2022-12-16T04:32:15;-2.30;99.90
18613;DHT22;9436;52.152;21.032;2022-12-16T04:34:41;-2.30;99.90
18613;DHT22;9436;52.152;21.032;2022-12-16T04:37:08;-2.30;99.90
18613;DHT22;9436;52.152;21.032;2022-12-16T04:39:38;-2.30;99.90
18613;DHT22;9436;52.152;21.032;2022-12-16T04:42:07;-2.30;99.90
18613;DHT22;9436;52.152;21.032;2022-12-16T04:44:37;-2.10;99.90
18613;DHT22;9436;52.152;21.032;2022-12-16T04:47:07;-2.10;99.90
18613;DHT22;9436;52.152;21.032;2022-12-16T04:49:44;-2.20;99.90
18613;DHT22;9436;52.152;21.032;2022-12-16T04:52:24;-2.10;99.90
18613;DHT22;9436;52.152;21.032;2022-12-16T04:55:03;-2.30;99.90
18613;DHT22;9436;52.152;21.032;2022-12-16T04:57:43;-2.30;99.90
18613;DHT22;9436;52.152;21.032;2022-12-16T05:00:20;-2.30;99.90
18613;DHT22;9436;52.152;21.032;2022-12-16T05:02:58;-2.30;99.90
18613;DHT22;9436;52.152;21.032;2022-12-16T05:05:36;-2.40;99.90
18613;DHT22;9436;52.152;21.032;2022-12-16T05:08:14;-2.50;99.90
18613;DHT22;9436;52.152;21.032;2022-12-16T05:10:52;-2.50;99.90
18613;DHT22;9436;52.152;21.032;2022-12-16T05:13:30;-2.40;99.90
18613;DHT22;9436;52.152;21.032;2022-12-16T05:16:07;-2.40;99.90
18613;DHT22;9436;52.152;21.032;2022-12-16T05:18:45;-2.40;99.90
18613;DHT22;9436;52.152;21.032;2022-12-16T05:21:22;-2.40;99.90
18613;DHT22;9436;52.152;21.032;2022-12-16T05:24:02;-2.50;99.90
18613;DHT22;9436;52.152;21.032;2022-12-16T05:26:40;-2.50;99.90
18613;DHT22;9436;52.152;21.032;2022-12-16T05:29:17;-2.50;99.90
18613;DHT22;9436;52.152;21.032;2022-12-16T05:31:55;-2.40;99.90
18613;DHT22;9436;52.152;21.032;2022-12-16T05:34:33;-2.30;99.90
18613;DHT22;9436;52.152;21.032;2022-12-16T05:37:10;-2.20;99.90
18613;DHT22;9436;52.152;21.032;2022-12-16T05:39:50;-2.30;99.90
18613;DHT22;9436;52.152;21.032;2022-12-16T05:42:27;-2.40;99.90
18613;DHT22;9436;52.152;21.032;2022-12-16T05:45:06;-2.50;99.90
18613;DHT22;9436;52.152;21.032;2022-12-16T05:47:46;-2.40;99.90
18613;DHT22;9436;52.152;21.032;2022-12-16T05:50:24;-2.40;99.90
18613;DHT22;9436;52.152;21.032;2022-12-16T05:53:02;-2.40;99.90
18613;DHT22;9436;52.152;21.032;2022-12-16T05:55:42;-2.40;99.90
18613;DHT22;9436;52.152;21.032;2022-12-16T05:58:20;-2.40;99.90
18613;DHT22;9436;52.152;21.032;2022-12-16T06:00:58;-2.40;99.90
18613;DHT22;9436;52.152;21.032;2022-12-16T06:03:35;-2.00;99.90
18613;DHT22;9436;52.152;21.032;2022-12-16T06:06:13;-2.10;99.90
18613;DHT22;9436;52.152;21.032;2022-12-16T06:08:51;-2.20;99.90
18613;DHT22;9436;52.152;21.032;2022-12-16T06:11:29;-2.30;99.90
18613;DHT22;9436;52.152;21.032;2022-12-16T06:14:07;-2.40;99.90
18613;DHT22;9436;52.152;21.032;2022-12-16T06:16:45;-2.40;99.90
18613;DHT22;9436;52.152;21.032;2022-12-16T06:19:22;-2.10;99.90
18613;DHT22;9436;52.152;21.032;2022-12-16T06:22:00;-1.90;99.90
18613;DHT22;9436;52.152;21.032;2022-12-16T06:24:37;-2.10;99.90
18613;DHT22;9436;52.152;21.032;2022-12-16T06:27:17;-2.20;99.90
18613;DHT22;9436;52.152;21.032;2022-12-16T06:29:55;-2.20;99.90
18613;DHT22;9436;52.152;21.032;2022-12-16T06:32:32;-2.10;99.90
18613;DHT22;9436;52.152;21.032;2022-12-16T06:35:10;-1.90;99.90
18613;DHT22;9436;52.152;21.032;2022-12-16T06:37:48;-1.70;99.90
18613;DHT22;9436;52.152;21.032;2022-12-16T06:40:25;-1.80;99.90
18613;DHT22;9436;52.152;21.032;2022-12-16T06:43:05;-1.90;99.90
18613;DHT22;9436;52.152;21.032;2022-12-16T06:45:43;-2.00;99.90
18613;DHT22;9436;52.152;21.032;2022-12-16T06:48:21;-1.30;99.90
18613;DHT22;9436;52.152;21.032;2022-12-16T06:50:58;-1.00;99.90
18613;DHT22;9436;52.152;21.032;2022-12-16T06:53:36;-0.80;99.90
18613;DHT22;9436;52.152;21.032;2022-12-16T06:56:14;-0.80;99.90
18613;DHT22;9436;52.152;21.032;2022-12-16T06:58:54;-1.00;99.90
18613;DHT22;9436;52.152;21.032;2022-12-16T07:01:31;-1.00;99.90
18613;DHT22;9436;52.152;21.032;2022-12-16T07:04:09;-0.80;99.90
18613;DHT22;9436;52.152;21.032;2022-12-16T07:06:47;-0.80;99.90
18613;DHT22;9436;52.152;21.032;2022-12-16T07:09:15;-0.40;99.90
18613;DHT22;9436;52.152;21.032;2022-12-16T07:11:53;-0.40;99.90
18613;DHT22;9436;52.152;21.032;2022-12-16T07:14:33;-0.80;99.90
18613;DHT22;9436;52.152;21.032;2022-12-16T07:17:10;-0.20;99.90
18613;DHT22;9436;52.152;21.032;2022-12-16T07:19:48;-0.40;99.90
18613;DHT22;9436;52.152;21.032;2022-12-16T07:22:26;-0.80;99.90
18613;DHT22;9436;52.152;21.032;2022-12-16T07:25:04;-1.10;99.90
18613;DHT22;9436;52.152;21.032;2022-12-16T07:27:32;-1.30;99.90
18613;DHT22;9436;52.152;21.032;2022-12-16T07:30:13;-1.00;99.90
18613;DHT22;9436;52.152;21.032;2022-12-16T07:32:50;-1.10;99.90
18613;DHT22;9436;52.152;21.032;2022-12-16T07:35:28;-1.30;99.90
18613;DHT22;9436;52.152;21.032;2022-12-16T07:38:05;-1.40;99.90
18613;DHT22;9436;52.152;21.032;2022-12-16T07:40:43;-1.60;99.90
18613;DHT22;9436;52.152;21.032;2022-12-16T07:43:21;-1.70;99.90
18613;DHT22;9436;52.152;21.032;2022-12-16T07:46:00;-1.70;99.90
18613;DHT22;9436;52.152;21.032;2022-12-16T07:48:38;-1.90;99.90
18613;DHT22;9436;52.152;21.032;2022-12-16T07:51:16;-1.40;99.90
18613;DHT22;9436;52.152;21.032;2022-12-16T07:53:56;-1.60;99.90
18613;DHT22;9436;52.152;21.032;2022-12-16T07:56:34;-1.60;99.90
18613;DHT22;9436;52.152;21.032;2022-12-16T07:59:11;-1.80;99.90
18613;DHT22;9436;52.152;21.032;2022-12-16T08:01:51;-1.70;99.90
18613;DHT22;9436;52.152;21.032;2022-12-16T08:04:29;-1.90;99.90
18613;DHT22;9436;52.152;21.032;2022-12-16T08:07:06;-2.20;99.90
18613;DHT22;9436;52.152;21.032;2022-12-16T08:09:35;-2.10;99.90
18613;DHT22;9436;52.152;21.032;2022-12-16T08:12:04;-2.00;99.90
18613;DHT22;9436;52.152;21.032;2022-12-16T08:14:41;-2.30;99.90
18613;DHT22;9436;52.152;21.032;2022-12-16T08:17:21;-2.40;99.90
18613;DHT22;9436;52.152;21.032;2022-12-16T08:19:59;-2.50;99.90
18613;DHT22;9436;52.152;21.032;2022-12-16T08:22:36;-2.60;99.90
18613;DHT22;9436;52.152;21.032;2022-12-16T08:25:16;-2.60;99.90
18613;DHT22;9436;52.152;21.032;2022-12-16T08:27:54;-2.70;99.90
18613;DHT22;9436;52.152;21.032;2022-12-16T08:30:32;-2.80;99.90
18613;DHT22;9436;52.152;21.032;2022-12-16T08:33:14;-2.70;99.90
18613;DHT22;9436;52.152;21.032;2022-12-16T08:35:52;-2.80;99.90
18613;DHT22;9436;52.152;21.032;2022-12-16T08:38:29;-2.80;99.90
18613;DHT22;9436;52.152;21.032;2022-12-16T08:41:07;-2.80;99.90
18613;DHT22;9436;52.152;21.032;2022-12-16T08:43:45;-2.70;99.90
18613;DHT22;9436;52.152;21.032;2022-12-16T08:46:13;-2.70;99.90
18613;DHT22;9436;52.152;21.032;2022-12-16T08:48:54;-2.60;99.90
18613;DHT22;9436;52.152;21.032;2022-12-16T08:51:31;-2.70;99.90
18613;DHT22;9436;52.152;21.032;2022-12-16T08:54:09;-2.70;99.90
18613;DHT22;9436;52.152;21.032;2022-12-16T08:56:37;-2.70;99.90
18613;DHT22;9436;52.152;21.032;2022-12-16T08:59:06;-2.70;99.90
18613;DHT22;9436;52.152;21.032;2022-12-16T09:01:35;-2.60;99.90
18613;DHT22;9436;52.152;21.032;2022-12-16T09:04:04;-2.70;99.90
18613;DHT22;9436;52.152;21.032;2022-12-16T09:06:33;-2.60;99.90
18613;DHT22;9436;52.152;21.032;2022-12-16T09:09:02;-2.50;99.90
18613;DHT22;9436;52.152;21.032;2022-12-16T09:11:30;-2.70;99.90
18613;DHT22;9436;52.152;21.032;2022-12-16T09:13:59;-2.60;99.90
18613;DHT22;9436;52.152;21.032;2022-12-16T09:16:27;-2.60;99.90
18613;DHT22;9436;52.152;21.032;2022-12-16T09:18:56;-1.40;99.90
18613;DHT22;9436;52.152;21.032;2022-12-16T09:21:39;-0.60;99.90
18613;DHT22;9436;52.152;21.032;2022-12-16T09:24:07;-0.90;99.90
18613;DHT22;9436;52.152;21.032;2022-12-16T09:26:36;-1.40;99.90
18613;DHT22;9436;52.152;21.032;2022-12-16T09:29:05;-1.80;99.90
18613;DHT22;9436;52.152;21.032;2022-12-16T09:31:33;-1.80;99.90
18613;DHT22;9436;52.152;21.032;2022-12-16T09:34:02;-2.10;99.90
18613;DHT22;9436;52.152;21.032;2022-12-16T09:36:30;-2.10;99.90
18613;DHT22;9436;52.152;21.032;2022-12-16T09:39:01;-2.00;99.90
18613;DHT22;9436;52.152;21.032;2022-12-16T09:41:40;-2.10;99.90
18613;DHT22;9436;52.152;21.032;2022-12-16T09:44:17;-2.10;99.90
18613;DHT22;9436;52.152;21.032;2022-12-16T09:46:51;-2.10;99.90
18613;DHT22;9436;52.152;21.032;2022-12-16T09:49:33;-2.10;99.90
18613;DHT22;9436;52.152;21.032;2022-12-16T09:52:05;-2.10;99.90
18613;DHT22;9436;52.152;21.032;2022-12-16T09:54:38;-2.10;99.90
18613;DHT22;9436;52.152;21.032;2022-12-16T09:57:10;-2.00;99.90
18613;DHT22;9436;52.152;21.032;2022-12-16T09:59:44;-1.90;99.90
18613;DHT22;9436;52.152;21.032;2022-12-16T10:02:17;-1.80;99.90
18613;DHT22;9436;52.152;21.032;2022-12-16T10:04:50;-1.70;99.90
18613;DHT22;9436;52.152;21.032;2022-12-16T10:07:19;-1.80;99.90
18613;DHT22;9436;52.152;21.032;2022-12-16T10:09:57;-1.70;99.90
18613;DHT22;9436;52.152;21.032;2022-12-16T10:12:33;-1.80;99.90
18613;DHT22;9436;52.152;21.032;2022-12-16T10:15:15;-1.80;99.90
18613;DHT22;9436;52.152;21.032;2022-12-16T10:17:46;-1.70;99.90
18613;DHT22;9436;52.152;21.032;2022-12-16T10:20:21;-1.70;99.90
18613;DHT22;9436;52.152;21.032;2022-12-16T10:23:09;-1.70;99.90
18613;DHT22;9436;52.152;21.032;2022-12-16T10:25:45;-1.80;99.90
18613;DHT22;9436;52.152;21.032;2022-12-16T10:28:18;-1.80;99.90
18613;DHT22;9436;52.152;21.032;2022-12-16T10:30:47;-1.70;99.90
18613;DHT22;9436;52.152;21.032;2022-12-16T10:33:17;-1.70;99.90
18613;DHT22;9436;52.152;21.032;2022-12-16T10:35:50;-1.70;99.90
18613;DHT22;9436;52.152;21.032;2022-12-16T10:38:21;-1.70;99.90
18613;DHT22;9436;52.152;21.032;2022-12-16T10:40:53;-1.70;99.90
18613;DHT22;9436;52.152;21.032;2022-12-16T10:43:37;-1.60;99.90
18613;DHT22;9436;52.152;21.032;2022-12-16T10:46:12;-1.70;99.90
18613;DHT22;9436;52.152;21.032;2022-12-16T10:48:44;-1.70;99.90
18613;DHT22;9436;52.152;21.032;2022-12-16T10:51:15;-1.80;99.90
18613;DHT22;9436;52.152;21.032;2022-12-16T10:53:45;-1.70;99.90
18613;DHT22;9436;52.152;21.032;2022-12-16T10:56:31;-1.80;99.90
18613;DHT22;9436;52.152;21.032;2022-12-16T10:59:06;-1.80;99.90
18613;DHT22;9436;52.152;21.032;2022-12-16T11:01:35;-1.80;99.90
18613;DHT22;9436;52.152;21.032;2022-12-16T11:04:26;-1.80;99.90
18613;DHT22;9436;52.152;21.032;2022-12-16T11:06:55;-1.70;99.90
18613;DHT22;9436;52.152;21.032;2022-12-16T11:09:26;-1.80;99.90
18613;DHT22;9436;52.152;21.032;2022-12-16T11:12:16;-1.80;99.90
18613;DHT22;9436;52.152;21.032;2022-12-16T11:14:51;-1.80;99.90
18613;DHT22;9436;52.152;21.032;2022-12-16T11:17:22;-1.70;99.90
18613;DHT22;9436;52.152;21.032;2022-12-16T11:20:06;-1.70;99.90
18613;DHT22;9436;52.152;21.032;2022-12-16T11:22:35;-1.50;99.90
18613;DHT22;9436;52.152;21.032;2022-12-16T11:25:06;-1.40;99.90
18613;DHT22;9436;52.152;21.032;2022-12-16T11:27:43;-1.30;99.90
18613;DHT22;9436;52.152;21.032;2022-12-16T11:30:16;-1.40;99.90
18613;DHT22;9436;52.152;21.032;2022-12-16T11:32:47;-1.40;99.90
18613;DHT22;9436;52.152;21.032;2022-12-16T11:35:18;-1.40;99.90
18613;DHT22;9436;52.152;21.032;2022-12-16T11:37:49;-1.10;99.90
18613;DHT22;9436;52.152;21.032;2022-12-16T11:40:20;-1.20;99.90
18613;DHT22;9436;52.152;21.032;2022-12-16T11:42:51;-1.20;99.90
18613;DHT22;9436;52.152;21.032;2022-12-16T11:45:32;-1.10;99.90
18613;DHT22;9436;52.152;21.032;2022-12-16T11:48:06;-1.00;99.90
18613;DHT22;9436;52.152;21.032;2022-12-16T11:50:50;-1.00;99.90
18613;DHT22;9436;52.152;21.032;2022-12-16T11:53:31;-1.10;99.90
18613;DHT22;9436;52.152;21.032;2022-12-16T11:56:00;-1.10;99.90
18613;DHT22;9436;52.152;21.032;2022-12-16T11:58:36;-1.10;99.90
18613;DHT22;9436;52.152;21.032;2022-12-16T12:01:12;-1.00;99.90
18613;DHT22;9436;52.152;21.032;2022-12-16T12:03:43;-1.00;99.90
18613;DHT22;9436;52.152;21.032;2022-12-16T12:06:18;-1.00;99.90
18613;DHT22;9436;52.152;21.032;2022-12-16T12:08:55;-1.10;99.90
18613;DHT22;9436;52.152;21.032;2022-12-16T12:11:29;-1.10;99.90
18613;DHT22;9436;52.152;21.032;2022-12-16T12:14:05;-1.30;99.90
18613;DHT22;9436;52.152;21.032;2022-12-16T12:16:51;-1.30;99.90
18613;DHT22;9436;52.152;21.032;2022-12-16T12:19:31;-1.40;99.90
18613;DHT22;9436;52.152;21.032;2022-12-16T12:22:06;-1.40;99.90
18613;DHT22;9436;52.152;21.032;2022-12-16T12:24:43;-1.30;99.90
18613;DHT22;9436;52.152;21.032;2022-12-16T12:27:21;-1.30;99.90
18613;DHT22;9436;52.152;21.032;2022-12-16T12:30:02;-1.30;99.90
18613;DHT22;9436;52.152;21.032;2022-12-16T12:32:38;-1.10;99.90
18613;DHT22;9436;52.152;21.032;2022-12-16T12:35:19;-1.10;99.90
18613;DHT22;9436;52.152;21.032;2022-12-16T12:37:54;-0.90;99.90
18613;DHT22;9436;52.152;21.032;2022-12-16T12:40:37;-0.90;99.90
18613;DHT22;9436;52.152;21.032;2022-12-16T12:43:18;-1.10;99.90
18613;DHT22;9436;52.152;21.032;2022-12-16T12:45:58;-1.10;99.90
18613;DHT22;9436;52.152;21.032;2022-12-16T12:48:35;-1.20;99.90
18613;DHT22;9436;52.152;21.032;2022-12-16T12:51:10;-1.20;99.90
18613;DHT22;9436;52.152;21.032;2022-12-16T12:53:48;-1.20;99.90
18613;DHT22;9436;52.152;21.032;2022-12-16T12:56:26;-1.10;99.90
18613;DHT22;9436;52.152;21.032;2022-12-16T12:59:02;-1.00;99.90
18613;DHT22;9436;52.152;21.032;2022-12-16T13:01:35;-1.00;99.90
18613;DHT22;9436;52.152;21.032;2022-12-16T13:04:10;-1.00;99.90
18613;DHT22;9436;52.152;21.032;2022-12-16T13:06:40;-0.90;99.90
18613;DHT22;9436;52.152;21.032;2022-12-16T13:17:07;-1.00;99.90
18613;DHT22;9436;52.152;21.032;2022-12-16T13:19:40;-0.90;99.90
18613;DHT22;9436;52.152;21.032;2022-12-16T13:22:26;-0.90;99.90
18613;DHT22;9436;52.152;21.032;2022-12-16T13:24:55;-1.10;99.90
18613;DHT22;9436;52.152;21.032;2022-12-16T13:27:26;-1.10;99.90
18613;DHT22;9436;52.152;21.032;2022-12-16T13:30:01;-0.90;99.90
18613;DHT22;9436;52.152;21.032;2022-12-16T13:32:55;-0.90;99.90
18613;DHT22;9436;52.152;21.032;2022-12-16T13:35:36;-1.00;99.90
18613;DHT22;9436;52.152;21.032;2022-12-16T13:38:19;-1.00;99.90
18613;DHT22;9436;52.152;21.032;2022-12-16T13:40:52;-1.00;99.90
18613;DHT22;9436;52.152;21.032;2022-12-16T13:46:12;-0.90;99.90
18613;DHT22;9436;52.152;21.032;2022-12-16T13:48:43;-0.90;99.90
18613;DHT22;9436;52.152;21.032;2022-12-16T13:53:58;-1.00;99.90
18613;DHT22;9436;52.152;21.032;2022-12-16T13:56:33;-1.00;99.90
18613;DHT22;9436;52.152;21.032;2022-12-16T13:59:06;-1.10;99.90
18613;DHT22;9436;52.152;21.032;2022-12-16T14:01:40;-0.90;99.90
18613;DHT22;9436;52.152;21.032;2022-12-16T14:04:14;-0.80;99.90
18613;DHT22;9436;52.152;21.032;2022-12-16T14:06:48;-1.00;99.90
18613;DHT22;9436;52.152;21.032;2022-12-16T14:09:28;-1.00;99.90
18613;DHT22;9436;52.152;21.032;2022-12-16T14:12:03;-1.00;99.90
18613;DHT22;9436;52.152;21.032;2022-12-16T14:14:35;-0.90;99.90
18613;DHT22;9436;52.152;21.032;2022-12-16T14:17:10;-0.40;99.90
18613;DHT22;9436;52.152;21.032;2022-12-16T14:19:53;-0.70;99.90
18613;DHT22;9436;52.152;21.032;2022-12-16T14:22:36;-0.50;99.90
18613;DHT22;9436;52.152;21.032;2022-12-16T14:25:13;-0.80;99.90
18613;DHT22;9436;52.152;21.032;2022-12-16T14:27:42;-0.60;99.90
18613;DHT22;9436;52.152;21.032;2022-12-16T14:30:16;-0.50;99.90
18613;DHT22;9436;52.152;21.032;2022-12-16T14:32:45;-0.60;99.90
18613;DHT22;9436;52.152;21.032;2022-12-16T14:35:18;-0.60;99.90
18613;DHT22;9436;52.152;21.032;2022-12-16T14:37:47;-0.80;99.90
18613;DHT22;9436;52.152;21.032;2022-12-16T14:40:19;-0.90;99.90
18613;DHT22;9436;52.152;21.032;2022-12-16T14:42:50;-0.60;99.90
18613;DHT22;9436;52.152;21.032;2022-12-16T14:45:24;-0.50;99.90
18613;DHT22;9436;52.152;21.032;2022-12-16T14:47:54;-0.30;99.90
18613;DHT22;9436;52.152;21.032;2022-12-16T14:50:37;-0.50;99.90
18613;DHT22;9436;52.152;21.032;2022-12-16T14:53:13;-0.50;99.90
18613;DHT22;9436;52.152;21.032;2022-12-16T14:55:42;-0.30;99.90
18613;DHT22;9436;52.152;21.032;2022-12-16T14:58:12;-0.20;99.90
18613;DHT22;9436;52.152;21.032;2022-12-16T15:00:43;0.00;99.90
18613;DHT22;9436;52.152;21.032;2022-12-16T15:03:17;0.10;99.90
18613;DHT22;9436;52.152;21.032;2022-12-16T15:05:51;0.40;99.90
18613;DHT22;9436;52.152;21.032;2022-12-16T15:08:21;0.50;99.90
18613;DHT22;9436;52.152;21.032;2022-12-16T15:10:49;0.10;99.90
18613;DHT22;9436;52.152;21.032;2022-12-16T15:13:18;0.00;99.90
18613;DHT22;9436;52.152;21.032;2022-12-16T15:15:48;-0.20;99.90
18613;DHT22;9436;52.152;21.032;2022-12-16T15:18:19;0.00;99.90
18613;DHT22;9436;52.152;21.032;2022-12-16T15:20:53;-0.20;99.90
18613;DHT22;9436;52.152;21.032;2022-12-16T15:23:24;-0.40;99.90
18613;DHT22;9436;52.152;21.032;2022-12-16T15:25:55;-0.30;99.90
18613;DHT22;9436;52.152;21.032;2022-12-16T15:28:35;0.10;99.90
18613;DHT22;9436;52.152;21.032;2022-12-16T15:31:12;0.20;99.90
18613;DHT22;9436;52.152;21.032;2022-12-16T15:33:40;-0.10;99.90
18613;DHT22;9436;52.152;21.032;2022-12-16T15:36:22;-0.20;99.90
18613;DHT22;9436;52.152;21.032;2022-12-16T15:38:51;-0.10;99.90
18613;DHT22;9436;52.152;21.032;2022-12-16T15:41:24;0.10;99.90
18613;DHT22;9436;52.152;21.032;2022-12-16T15:44:00;0.00;99.90
18613;DHT22;9436;52.152;21.032;2022-12-16T15:46:30;0.00;99.90
18613;DHT22;9436;52.152;21.032;2022-12-16T15:48:59;-0.20;99.90
18613;DHT22;9436;52.152;21.032;2022-12-16T15:51:42;-0.20;99.90
18613;DHT22;9436;52.152;21.032;2022-12-16T15:54:15;-0.40;99.90
18613;DHT22;9436;52.152;21.032;2022-12-16T15:56:44;-0.70;99.90
18613;DHT22;9436;52.152;21.032;2022-12-16T15:59:20;-0.60;99.90
18613;DHT22;9436;52.152;21.032;2022-12-16T16:01:50;-0.80;99.90
18613;DHT22;9436;52.152;21.032;2022-12-16T16:04:23;-0.20;99.90
18613;DHT22;9436;52.152;21.032;2022-12-16T16:06:55;-0.40;99.90
18613;DHT22;9436;52.152;21.032;2022-12-16T16:09:26;-0.70;99.90
18613;DHT22;9436;52.152;21.032;2022-12-16T16:11:55;-0.80;99.90
18613;DHT22;9436;52.152;21.032;2022-12-16T16:14:23;-0.10;99.90
18613;DHT22;9436;52.152;21.032;2022-12-16T16:16:52;-0.30;99.90
18613;DHT22;9436;52.152;21.032;2022-12-16T16:19:22;-0.50;99.90
18613;DHT22;9436;52.152;21.032;2022-12-16T16:21:51;-0.80;99.90
18613;DHT22;9436;52.152;21.032;2022-12-16T16:24:23;-0.80;99.90
18613;DHT22;9436;52.152;21.032;2022-12-16T16:26:52;-1.00;99.90
18613;DHT22;9436;52.152;21.032;2022-12-16T16:29:21;-1.20;99.90